createdAt,value
2023-02-23T00:02:28.386Z,8.80
2023-02-23T00:08:23.588Z,8.90
2023-02-23T00:11:12.368Z,8.90
2023-02-23T00:13:58.864Z,8.80
2023-02-23T00:16:45.550Z,8.90
2023-02-23T00:19:33.335Z,8.70
2023-02-23T00:22:01.216Z,8.70
2023-02-23T00:24:47.919Z,8.70
2023-02-23T00:27:34.834Z,8.80
2023-02-23T00:30:20.806Z,8.80
2023-02-23T00:33:07.643Z,8.90
2023-02-23T00:35:34.920Z,8.80
2023-02-23T00:38:06.545Z,8.90
2023-02-23T00:40:52.268Z,8.90
2023-02-23T00:43:47.805Z,9.00
2023-02-23T00:46:33.493Z,8.90
2023-02-23T00:49:20.927Z,9.00
2023-02-23T00:52:06.462Z,9.00
2023-02-23T00:54:54.062Z,9.00
2023-02-23T00:57:40.181Z,9.00
2023-02-23T01:00:25.810Z,9.00
2023-02-23T01:03:11.445Z,9.00
2023-02-23T01:06:05.066Z,9.00
2023-02-23T01:08:56.775Z,9.00
2023-02-23T01:11:42.522Z,8.90
2023-02-23T01:14:31.325Z,8.90
2023-02-23T01:17:18.024Z,8.80
2023-02-23T01:20:19.553Z,9.00
2023-02-23T01:23:07.428Z,9.10
2023-02-23T01:25:53.171Z,9.10
2023-02-23T01:28:39.078Z,9.20
2023-02-23T01:31:26.649Z,9.30
2023-02-23T01:34:14.521Z,9.20
2023-02-23T01:36:43.949Z,9.30
2023-02-23T01:39:17.285Z,9.30
2023-02-23T01:42:06.588Z,9.40
2023-02-23T01:44:52.283Z,9.40
2023-02-23T01:47:39.765Z,9.70
2023-02-23T01:50:28.086Z,9.60
2023-02-23T01:53:14.573Z,9.50
2023-02-23T01:56:11.564Z,9.60
2023-02-23T01:59:03.286Z,9.40
2023-02-23T02:01:48.903Z,9.30
2023-02-23T02:04:44.797Z,9.40
2023-02-23T02:07:35.181Z,9.60
2023-02-23T02:10:39.825Z,9.90
2023-02-23T02:13:32.484Z,10.00
2023-02-23T02:16:23.179Z,10.00
2023-02-23T02:19:50.322Z,9.80
2023-02-23T02:22:29.614Z,9.40
2023-02-23T02:25:38.375Z,9.20
2023-02-23T02:28:30.371Z,9.30
2023-02-23T02:31:51.267Z,9.10
2023-02-23T02:34:51.053Z,9.00
2023-02-23T02:37:33.350Z,8.80
2023-02-23T02:40:25.905Z,8.80
2023-02-23T02:43:21.186Z,8.80
2023-02-23T02:46:29.229Z,8.80
2023-02-23T02:49:31.349Z,8.70
2023-02-23T02:52:25.583Z,8.60
2023-02-23T02:55:23.766Z,8.90
2023-02-23T02:58:07.997Z,9.00
2023-02-23T03:01:12.620Z,8.80
2023-02-23T03:04:23.316Z,8.80
2023-02-23T03:07:28.509Z,8.80
2023-02-23T03:11:02.050Z,8.70
2023-02-23T03:14:27.518Z,8.70
2023-02-23T03:17:44.366Z,8.80
2023-02-23T03:20:51.427Z,8.70
2023-02-23T03:24:10.499Z,8.60
2023-02-23T03:27:23.385Z,8.50
2023-02-23T03:30:45.289Z,8.50
2023-02-23T03:34:03.131Z,8.40
2023-02-23T03:37:13.490Z,8.40
2023-02-23T03:40:44.296Z,8.40
2023-02-23T03:44:05.229Z,8.40
2023-02-23T03:47:12.229Z,8.30
2023-02-23T03:50:19.631Z,8.40
2023-02-23T03:53:12.870Z,8.40
2023-02-23T03:56:18.352Z,8.40
2023-02-23T03:59:26.701Z,8.50
2023-02-23T04:02:33.353Z,8.40
2023-02-23T04:05:41.283Z,8.40
2023-02-23T04:08:31.782Z,8.40
2023-02-23T04:11:52.382Z,8.50
2023-02-23T04:15:02.888Z,8.70
2023-02-23T04:17:35.383Z,8.70
2023-02-23T04:20:22.602Z,8.70
2023-02-23T04:22:49.845Z,8.60
2023-02-23T04:25:35.537Z,8.60
2023-02-23T04:28:03.764Z,8.60
2023-02-23T04:30:50.051Z,8.70
2023-02-23T04:33:37.623Z,8.70
2023-02-23T04:36:27.085Z,8.70
2023-02-23T04:39:12.730Z,8.80
2023-02-23T04:41:58.418Z,8.70
2023-02-23T04:44:45.255Z,8.60
2023-02-23T04:47:31.359Z,8.40
2023-02-23T04:50:19.512Z,8.40
2023-02-23T04:53:05.710Z,8.40
2023-02-23T04:55:51.792Z,8.30
2023-02-23T04:58:37.490Z,8.30
2023-02-23T05:01:24.319Z,8.40
2023-02-23T05:04:10.279Z,8.40
2023-02-23T05:06:57.774Z,8.40
2023-02-23T05:09:25.160Z,8.50
2023-02-23T05:12:12.528Z,8.40
2023-02-23T05:14:58.527Z,8.50
2023-02-23T05:17:44.514Z,8.40
2023-02-23T05:20:30.099Z,8.40
2023-02-23T05:23:17.586Z,8.50
2023-02-23T05:26:09.877Z,8.60
2023-02-23T05:28:57.003Z,8.60
2023-02-23T05:31:42.744Z,8.50
2023-02-23T05:34:28.622Z,8.70
2023-02-23T05:37:14.330Z,8.60
2023-02-23T05:40:02.062Z,8.60
2023-02-23T05:42:47.876Z,8.70
2023-02-23T05:45:28.064Z,8.60
2023-02-23T05:48:14.084Z,8.70
2023-02-23T05:51:07.003Z,8.60
2023-02-23T05:53:34.672Z,8.70
2023-02-23T05:56:21.360Z,8.60
2023-02-23T05:59:08.924Z,8.60
2023-02-23T06:01:54.791Z,8.50
2023-02-23T06:04:40.588Z,8.50
2023-02-23T06:07:26.240Z,8.70
2023-02-23T06:10:14.491Z,8.70
2023-02-23T06:13:00.487Z,8.70
2023-02-23T06:15:30.015Z,8.70
2023-02-23T06:17:57.895Z,8.70
2023-02-23T06:20:25.025Z,8.70
2023-02-23T06:22:52.419Z,8.60
2023-02-23T06:25:19.999Z,8.60
2023-02-23T06:27:51.019Z,8.60
2023-02-23T06:30:18.993Z,8.60
2023-02-23T06:32:46.545Z,8.60
2023-02-23T06:35:13.942Z,8.80
2023-02-23T06:37:41.389Z,8.70
2023-02-23T06:40:27.541Z,8.70
2023-02-23T06:43:15.255Z,8.70
2023-02-23T06:45:42.522Z,8.70
2023-02-23T06:48:33.271Z,8.80
2023-02-23T06:51:06.242Z,8.80
2023-02-23T06:53:53.448Z,8.70
2023-02-23T06:56:39.388Z,8.70
2023-02-23T06:59:26.697Z,8.70
2023-02-23T07:02:15.864Z,8.80
2023-02-23T07:05:02.039Z,8.90
2023-02-23T07:07:48.265Z,8.80
2023-02-23T07:10:35.559Z,8.80
2023-02-23T07:13:22.076Z,8.90
2023-02-23T07:16:10.045Z,9.00
2023-02-23T07:18:56.630Z,8.90
2023-02-23T07:21:42.210Z,8.90
2023-02-23T07:24:09.508Z,8.90
2023-02-23T07:26:37.189Z,9.00
2023-02-23T07:29:25.362Z,9.00
2023-02-23T07:31:54.912Z,8.90
2023-02-23T07:34:33.550Z,8.90
2023-02-23T07:37:19.498Z,8.90
2023-02-23T07:40:05.845Z,8.90
2023-02-23T07:42:52.139Z,8.90
2023-02-23T07:45:38.405Z,9.00
2023-02-23T07:48:26.067Z,9.10
2023-02-23T07:51:15.465Z,9.20
2023-02-23T07:54:04.828Z,9.20
2023-02-23T07:56:50.874Z,9.30
2023-02-23T07:59:37.098Z,9.40
2023-02-23T08:02:22.994Z,9.50
2023-02-23T08:05:10.965Z,9.60
2023-02-23T08:07:58.148Z,9.40
2023-02-23T08:10:45.421Z,9.30
2023-02-23T08:13:34.124Z,9.30
2023-02-23T08:16:21.672Z,9.20
2023-02-23T08:19:07.466Z,9.20
2023-02-23T08:21:45.373Z,9.30
2023-02-23T08:24:33.104Z,9.50
2023-02-23T08:27:20.903Z,9.40
2023-02-23T08:30:10.100Z,9.50
2023-02-23T08:32:57.592Z,9.60
2023-02-23T08:35:44.186Z,9.60
2023-02-23T08:38:31.256Z,9.70
2023-02-23T08:41:17.631Z,9.50
2023-02-23T08:44:03.410Z,9.70
2023-02-23T08:46:49.448Z,9.50
2023-02-23T08:49:19.398Z,9.60
2023-02-23T08:51:49.164Z,9.70
2023-02-23T08:54:35.064Z,9.70
2023-02-23T08:57:20.903Z,9.90
2023-02-23T09:00:11.917Z,10.00
2023-02-23T09:02:57.521Z,10.20
2023-02-23T09:05:44.295Z,10.40
2023-02-23T09:08:29.915Z,10.40
2023-02-23T09:11:15.681Z,10.40
2023-02-23T09:14:01.723Z,10.30
2023-02-23T09:16:49.337Z,10.20
2023-02-23T09:19:35.089Z,10.20
2023-02-23T09:22:22.578Z,10.40
2023-02-23T09:25:10.480Z,10.50
2023-02-23T09:27:57.169Z,10.30
2023-02-23T09:30:44.551Z,10.10
2023-02-23T09:33:32.304Z,10.20
2023-02-23T09:36:21.651Z,10.10
2023-02-23T09:39:09.233Z,10.10
2023-02-23T09:42:08.435Z,10.00
2023-02-23T09:45:14.391Z,10.10
2023-02-23T09:48:09.517Z,10.30
2023-02-23T09:50:42.681Z,10.40
2023-02-23T09:53:51.168Z,10.40
2023-02-23T09:56:49.854Z,10.50
2023-02-23T09:59:36.396Z,10.50
2023-02-23T10:02:54.172Z,10.70
2023-02-23T10:05:31.828Z,10.70
2023-02-23T10:08:50.902Z,11.10
2023-02-23T10:11:58.961Z,11.20
2023-02-23T10:15:06.563Z,11.70
2023-02-23T10:18:24.620Z,11.70
2023-02-23T10:21:22.646Z,10.90
2023-02-23T10:24:19.349Z,11.20
2023-02-23T10:27:14.202Z,11.40
2023-02-23T10:29:51.605Z,11.60
2023-02-23T10:32:54.463Z,11.60
2023-02-23T10:35:42.006Z,12.60
2023-02-23T10:38:27.959Z,12.20
2023-02-23T10:41:15.544Z,12.80
2023-02-23T10:44:15.372Z,12.40
2023-02-23T10:47:13.677Z,12.80
2023-02-23T10:49:49.032Z,13.00
2023-02-23T10:52:45.926Z,12.90
2023-02-23T10:55:32.553Z,13.00
2023-02-23T10:58:20.006Z,12.60
2023-02-23T11:01:06.407Z,11.80
2023-02-23T11:04:05.407Z,11.80
2023-02-23T11:06:39.543Z,12.00
2023-02-23T11:09:43.884Z,12.00
2023-02-23T11:12:41.950Z,12.10
2023-02-23T11:15:49.469Z,11.90
2023-02-23T11:18:37.290Z,11.70
2023-02-23T11:21:33.495Z,11.40
2023-02-23T11:24:22.730Z,11.90
2023-02-23T11:27:23.342Z,11.40
2023-02-23T11:30:12.506Z,12.00
2023-02-23T11:33:11.032Z,13.20
2023-02-23T11:36:12.532Z,13.10
2023-02-23T11:39:20.031Z,13.60
2023-02-23T11:42:25.466Z,14.80
2023-02-23T11:45:08.343Z,14.10
2023-02-23T11:47:59.463Z,12.70
2023-02-23T11:50:49.153Z,11.90
2023-02-23T11:53:45.241Z,12.00
2023-02-23T11:56:35.256Z,11.80
2023-02-23T11:59:40.177Z,11.60
2023-02-23T12:02:23.086Z,11.80
2023-02-23T12:05:18.301Z,12.30
2023-02-23T12:08:16.707Z,12.40
2023-02-23T12:11:06.864Z,12.50
2023-02-23T12:14:00.924Z,12.80
2023-02-23T12:16:46.697Z,12.60
2023-02-23T12:19:40.872Z,12.90
2023-02-23T12:22:33.913Z,12.30
2023-02-23T12:25:41.181Z,12.00
2023-02-23T12:28:41.926Z,11.90
2023-02-23T12:31:54.424Z,11.90
2023-02-23T12:34:47.295Z,11.80
2023-02-23T12:37:39.880Z,11.80
2023-02-23T12:40:30.219Z,11.70
2023-02-23T12:43:32.557Z,11.70
2023-02-23T12:46:31.482Z,11.70
2023-02-23T12:49:36.428Z,11.70
2023-02-23T12:52:36.743Z,11.80
2023-02-23T12:55:27.683Z,11.90
2023-02-23T12:58:32.349Z,11.90
2023-02-23T13:01:29.393Z,11.90
2023-02-23T13:04:24.288Z,11.90
2023-02-23T13:07:42.572Z,12.00
2023-02-23T13:10:49.696Z,12.00
2023-02-23T13:14:09.115Z,12.00
2023-02-23T13:17:07.266Z,12.10
2023-02-23T13:19:58.738Z,12.20
2023-02-23T13:22:58.826Z,12.50
2023-02-23T13:26:14.329Z,12.80
2023-02-23T13:28:59.809Z,12.90
2023-02-23T13:31:46.425Z,12.50
2023-02-23T13:34:51.168Z,12.40
2023-02-23T13:37:50.220Z,12.40
2023-02-23T13:41:06.631Z,12.50
2023-02-23T13:44:20.141Z,13.00
2023-02-23T13:47:17.228Z,13.60
2023-02-23T13:50:40.003Z,14.20
2023-02-23T13:53:39.859Z,14.20
2023-02-23T13:56:31.601Z,14.10
2023-02-23T13:59:29.690Z,13.50
2023-02-23T14:02:35.695Z,13.70
2023-02-23T14:05:26.036Z,13.90
2023-02-23T14:08:38.685Z,13.40
2023-02-23T14:11:49.639Z,13.60
2023-02-23T14:14:35.948Z,13.50
2023-02-23T14:17:27.778Z,13.40
2023-02-23T14:20:29.505Z,13.70
2023-02-23T14:23:20.106Z,14.00
2023-02-23T14:26:31.989Z,14.20
2023-02-23T14:29:21.873Z,13.90
2023-02-23T14:32:16.513Z,13.70
2023-02-23T14:35:04.724Z,13.40
2023-02-23T14:38:24.950Z,13.60
2023-02-23T14:41:12.590Z,13.50
2023-02-23T14:44:29.679Z,13.70
2023-02-23T14:47:19.972Z,13.40
2023-02-23T14:50:16.082Z,13.20
2023-02-23T14:53:02.590Z,13.00
2023-02-23T14:55:32.587Z,12.80
2023-02-23T14:58:38.477Z,12.50
2023-02-23T15:01:38.949Z,12.50
2023-02-23T15:04:29.929Z,13.00
2023-02-23T15:07:25.265Z,13.30
2023-02-23T15:10:20.216Z,13.30
2023-02-23T15:12:48.370Z,13.30
2023-02-23T15:15:36.283Z,13.20
2023-02-23T15:19:18.547Z,13.20
2023-02-23T15:22:05.512Z,13.30
2023-02-23T15:24:51.183Z,13.30
2023-02-23T15:27:45.414Z,13.30
2023-02-23T15:30:32.873Z,13.30
2023-02-23T15:33:12.965Z,13.00
2023-02-23T15:36:30.097Z,13.20
2023-02-23T15:39:21.723Z,12.80
2023-02-23T15:42:13.600Z,12.30
2023-02-23T15:45:02.748Z,12.30
2023-02-23T15:47:44.954Z,12.30
2023-02-23T15:50:40.020Z,12.30
2023-02-23T15:53:29.161Z,12.20
2023-02-23T15:56:26.892Z,12.40
2023-02-23T15:58:58.316Z,12.30
2023-02-23T16:01:31.026Z,12.30
2023-02-23T16:04:21.800Z,12.50
2023-02-23T16:07:35.434Z,12.40
2023-02-23T16:10:22.912Z,12.20
2023-02-23T16:13:12.936Z,12.10
2023-02-23T16:15:41.211Z,12.00
2023-02-23T16:18:41.172Z,11.90
2023-02-23T16:21:30.823Z,11.90
2023-02-23T16:24:22.556Z,11.90
2023-02-23T16:27:10.722Z,11.80
2023-02-23T16:30:04.673Z,11.90
2023-02-23T16:33:12.103Z,11.90
2023-02-23T16:36:16.016Z,11.80
2023-02-23T16:39:06.380Z,11.80
2023-02-23T16:41:48.660Z,11.70
2023-02-23T16:44:43.417Z,11.90
2023-02-23T16:47:48.390Z,11.80
2023-02-23T16:50:27.512Z,11.80
2023-02-23T16:52:57.590Z,11.70
2023-02-23T16:55:50.041Z,11.80
2023-02-23T16:58:36.225Z,11.70
2023-02-23T17:01:03.825Z,11.60
2023-02-23T17:03:54.163Z,11.50
2023-02-23T17:06:41.553Z,11.40
2023-02-23T17:09:29.549Z,11.30
2023-02-23T17:12:21.937Z,11.40
2023-02-23T17:15:17.854Z,11.40
2023-02-23T17:18:04.728Z,11.40
2023-02-23T17:20:47.568Z,11.40
2023-02-23T17:23:42.506Z,11.40
2023-02-23T17:26:17.170Z,11.40
2023-02-23T17:29:03.021Z,11.40
2023-02-23T17:31:36.264Z,11.40
2023-02-23T17:34:23.391Z,11.40
2023-02-23T17:37:11.770Z,11.30
2023-02-23T17:40:01.262Z,11.40
2023-02-23T17:42:48.710Z,11.40
2023-02-23T17:45:34.810Z,11.40
2023-02-23T17:48:13.100Z,11.40
2023-02-23T17:50:41.072Z,11.50
2023-02-23T17:53:08.320Z,11.60
2023-02-23T17:55:35.568Z,11.70
2023-02-23T17:58:21.626Z,11.60
2023-02-23T18:00:49.483Z,11.50
2023-02-23T18:03:37.517Z,11.40
2023-02-23T18:06:23.229Z,11.20
2023-02-23T18:09:14.460Z,11.20
2023-02-23T18:12:04.377Z,11.30
2023-02-23T18:14:51.907Z,11.20
2023-02-23T18:17:38.053Z,11.20
2023-02-23T18:20:23.821Z,11.10
2023-02-23T18:23:09.736Z,11.10
2023-02-23T18:25:37.332Z,11.20
2023-02-23T18:28:23.340Z,11.40
2023-02-23T18:31:20.037Z,11.40
2023-02-23T18:34:06.578Z,11.30
2023-02-23T18:36:52.510Z,11.10
2023-02-23T18:39:31.045Z,11.10
2023-02-23T18:42:18.362Z,11.20
2023-02-23T18:45:04.445Z,11.20
2023-02-23T18:47:52.135Z,11.20
2023-02-23T18:50:38.022Z,11.20
2023-02-23T18:53:25.811Z,11.10
2023-02-23T18:55:53.112Z,11.10
2023-02-23T18:58:42.034Z,11.00
2023-02-23T19:01:37.423Z,11.00
2023-02-23T19:04:24.858Z,11.00
2023-02-23T19:07:10.950Z,11.10
2023-02-23T19:10:02.119Z,11.10
2023-02-23T19:12:48.104Z,10.80
2023-02-23T19:15:31.955Z,11.00
2023-02-23T19:18:17.815Z,11.10
2023-02-23T19:21:07.422Z,11.20
2023-02-23T19:23:34.704Z,10.80
2023-02-23T19:26:22.936Z,10.80
2023-02-23T19:28:50.401Z,10.70
2023-02-23T19:31:39.013Z,10.70
2023-02-23T19:34:24.834Z,10.50
2023-02-23T19:37:10.557Z,10.50
2023-02-23T19:39:56.358Z,10.50
2023-02-23T19:42:46.006Z,10.60
2023-02-23T19:45:32.190Z,10.80
2023-02-23T19:48:20.375Z,10.90
2023-02-23T19:50:49.434Z,10.80
2023-02-23T19:53:35.841Z,10.60
2023-02-23T19:56:24.701Z,10.50
2023-02-23T19:58:52.640Z,10.50
2023-02-23T20:01:38.287Z,10.40
2023-02-23T20:04:27.192Z,10.50
2023-02-23T20:07:13.221Z,10.60
2023-02-23T20:09:40.586Z,10.70
2023-02-23T20:12:28.792Z,10.60
2023-02-23T20:15:16.500Z,10.20
2023-02-23T20:18:02.546Z,9.90
2023-02-23T20:20:53.941Z,9.80
2023-02-23T20:23:27.316Z,9.50
2023-02-23T20:26:16.026Z,9.40
2023-02-23T20:28:43.671Z,9.40
2023-02-23T20:31:35.193Z,9.60
2023-02-23T20:34:24.593Z,9.70
2023-02-23T20:37:12.553Z,9.70
2023-02-23T20:39:58.346Z,9.80
2023-02-23T20:42:47.906Z,9.80
2023-02-23T20:45:17.675Z,9.70
2023-02-23T20:47:46.168Z,9.60
2023-02-23T20:50:34.061Z,9.60
2023-02-23T20:53:22.507Z,9.70
2023-02-23T20:56:10.001Z,9.70
2023-02-23T20:58:58.181Z,9.80
2023-02-23T21:01:45.518Z,9.60
2023-02-23T21:04:19.274Z,9.50
2023-02-23T21:07:05.562Z,9.60
2023-02-23T21:09:59.192Z,9.70
2023-02-23T21:12:44.766Z,9.80
2023-02-23T21:15:32.857Z,9.60
2023-02-23T21:18:18.989Z,9.70
2023-02-23T21:20:46.413Z,9.70
2023-02-23T21:23:14.042Z,9.60
2023-02-23T21:25:41.472Z,9.60
2023-02-23T21:28:12.159Z,9.40
2023-02-23T21:30:58.197Z,9.30
2023-02-23T21:33:42.389Z,9.20
2023-02-23T21:36:30.405Z,9.30
2023-02-23T21:39:16.447Z,9.10
2023-02-23T21:42:02.213Z,9.10
2023-02-23T21:44:44.450Z,9.10
2023-02-23T21:47:35.238Z,9.20
2023-02-23T21:50:21.168Z,9.30
2023-02-23T21:53:10.573Z,9.50
2023-02-23T21:55:41.271Z,9.90
2023-02-23T21:58:28.893Z,9.90
2023-02-23T22:01:20.558Z,10.10
2023-02-23T22:04:12.949Z,10.00
2023-02-23T22:06:58.980Z,10.10
2023-02-23T22:09:44.709Z,10.20
2023-02-23T22:12:32.594Z,10.20
2023-02-23T22:15:18.662Z,10.00
2023-02-23T22:18:04.428Z,10.10
2023-02-23T22:20:59.201Z,9.90
2023-02-23T22:23:47.891Z,9.90
2023-02-23T22:26:39.299Z,9.80
2023-02-23T22:29:26.402Z,9.90
2023-02-23T22:32:14.657Z,9.70
2023-02-23T22:35:01.317Z,9.20
2023-02-23T22:37:48.884Z,8.90
2023-02-23T22:40:35.271Z,8.90
2023-02-23T22:43:22.843Z,8.70
2023-02-23T22:45:57.498Z,8.80
2023-02-23T22:48:45.142Z,8.70
2023-02-23T22:51:14.639Z,8.80
2023-02-23T22:54:02.227Z,9.00
2023-02-23T22:56:49.071Z,9.00
2023-02-23T22:59:34.766Z,9.00
2023-02-23T23:02:21.912Z,9.00
2023-02-23T23:05:09.766Z,9.00
2023-02-23T23:07:55.439Z,9.00
2023-02-23T23:10:28.593Z,9.00
2023-02-23T23:13:17.683Z,9.00
2023-02-23T23:16:16.834Z,9.10
2023-02-23T23:18:55.894Z,9.30
2023-02-23T23:21:45.516Z,9.30
2023-02-23T23:24:13.685Z,9.40
2023-02-23T23:27:01.270Z,9.60
2023-02-23T23:29:48.901Z,9.60
2023-02-23T23:32:18.429Z,9.50
2023-02-23T23:35:07.040Z,9.50
2023-02-23T23:37:34.418Z,9.40
2023-02-23T23:40:24.427Z,9.40
2023-02-23T23:42:52.658Z,9.40
2023-02-23T23:45:40.458Z,9.30
2023-02-23T23:48:26.208Z,9.20
2023-02-23T23:51:12.073Z,9.10
2023-02-23T23:54:02.108Z,9.10
2023-02-23T23:56:49.580Z,9.10
2023-02-23T23:59:35.945Z,9.20
